Time;durP1;ratioP1;P1;durP2;ratioP2;P2;SDS_P1;SDS_P2;PMS_P1;PMS_P2;Temp;Humidity;BMP_temperature;BMP_pressure;BME280_temperature;BME280_humidity;BME280_pressure;Samples;Min_cycle;Max_cycle;Signal;HPM_P1;HPM_P2
2023/12/29 00:01:44;;;;;;;4.07;3.70;;;;;;;9.71;85.07;98160.13;4957828;28;20028;-74
2023/12/29 00:04:10;;;;;;;4.47;3.92;;;;;;;9.56;84.53;98129.47;4925335;29;20046;-73
2023/12/29 00:06:39;;;;;;;4.30;3.90;;;;;;;9.71;85.05;98148.56;4933221;28;20023;-74
2023/12/29 00:09:04;;;;;;;4.18;3.80;;;;;;;9.61;84.99;98124.19;4947851;28;20071;-74
2023/12/29 00:11:30;;;;;;;4.13;3.72;;;;;;;9.67;85.24;98137.47;4943432;29;20074;-74
2023/12/29 00:13:55;;;;;;;3.90;3.60;;;;;;;9.59;85.46;98123.63;4926125;29;20725;-73
2023/12/29 00:16:21;;;;;;;4.45;4.05;;;;;;;9.68;85.09;98154.44;4928745;29;20046;-74
2023/12/29 00:18:46;;;;;;;4.28;3.80;;;;;;;9.61;85.21;98132.25;4925170;29;20040;-74
2023/12/29 00:21:11;;;;;;;6.28;4.35;;;;;;;9.51;85.12;98119.44;4911453;29;20129;-74
2023/12/29 00:23:37;;;;;;;4.05;3.65;;;;;;;9.55;85.02;98115.19;4914338;29;20352;-74
2023/12/29 00:26:02;;;;;;;5.07;3.88;;;;;;;9.65;85.20;98144.16;4938431;29;20174;-73
2023/12/29 00:28:28;;;;;;;5.35;4.22;;;;;;;9.56;85.38;98132.16;4940281;29;20075;-74
2023/12/29 00:30:53;;;;;;;5.32;4.10;;;;;;;9.55;85.11;98134.03;4943849;28;20105;-74
2023/12/29 00:33:19;;;;;;;4.63;4.07;;;;;;;9.59;85.18;98143.22;4915486;28;20039;-73
2023/12/29 00:35:44;;;;;;;4.68;3.92;;;;;;;9.58;84.42;98128.16;4909293;29;20484;-73
2023/12/29 00:38:09;;;;;;;5.25;4.20;;;;;;;9.60;85.03;98136.81;4933642;29;20048;-74
2023/12/29 00:40:35;;;;;;;3.97;3.67;;;;;;;9.65;84.81;98138.78;4928245;29;20107;-74
2023/12/29 00:43:01;;;;;;;4.47;4.00;;;;;;;9.58;84.92;98117.41;4933768;29;20051;-73
2023/12/29 00:45:29;;;;;;;4.85;3.97;;;;;;;9.67;85.72;98133.97;4912716;29;20028;-74
2023/12/29 00:47:55;;;;;;;4.40;4.00;;;;;;;9.55;85.71;98117.88;4912270;29;20415;-74
2023/12/29 00:50:20;;;;;;;5.82;4.25;;;;;;;9.65;85.60;98128.03;4926173;29;20030;-74
2023/12/29 00:52:45;;;;;;;4.05;3.75;;;;;;;9.49;85.46;98108.09;4915874;29;20662;-73
2023/12/29 00:55:11;;;;;;;5.85;4.20;;;;;;;9.53;85.62;98111.94;4909998;29;20038;-74
2023/12/29 00:57:36;;;;;;;4.22;3.80;;;;;;;9.58;85.72;98112.03;4916905;29;20125;-72
2023/12/29 01:00:02;;;;;;;5.18;4.03;;;;;;;9.55;85.24;98114.38;4920389;29;20042;-74
2023/12/29 01:02:27;;;;;;;4.13;3.72;;;;;;;9.45;85.21;98109.63;4951297;28;20050;-74
2023/12/29 01:04:52;;;;;;;4.93;4.13;;;;;;;9.53;85.54;98111.94;4933822;29;20032;-72
2023/12/29 01:07:18;;;;;;;4.20;3.80;;;;;;;9.44;85.13;98110.69;4939117;29;20090;-73
2023/12/29 01:09:43;;;;;;;4.47;3.67;;;;;;;9.55;85.28;98117.06;4935040;28;20027;-73
2023/12/29 01:12:09;;;;;;;4.53;3.85;;;;;;;9.57;84.82;98105.00;4949709;28;20399;-72
2023/12/29 01:14:35;;;;;;;3.70;3.40;;;;;;;9.60;84.94;98115.31;4947914;28;20023;-73
2023/12/29 01:17:00;;;;;;;3.58;3.25;;;;;;;9.60;84.46;98118.00;4914912;29;20085;-73
2023/12/29 01:19:25;;;;;;;4.32;3.67;;;;;;;9.61;84.95;98122.28;4914838;29;20042;-73
2023/12/29 01:21:51;;;;;;;3.90;3.50;;;;;;;9.56;84.51;98105.28;4948133;28;20504;-72
2023/12/29 01:24:16;;;;;;;3.28;2.97;;;;;;;9.64;84.45;98119.13;4911403;29;20027;-73
2023/12/29 01:26:42;;;;;;;4.47;3.38;;;;;;;9.66;84.28;98114.31;4948774;28;20044;-74
2023/12/29 01:29:07;;;;;;;3.47;3.17;;;;;;;9.66;84.15;98117.00;4942712;29;20062;-72
2023/12/29 01:31:32;;;;;;;3.67;3.38;;;;;;;9.57;84.06;98104.19;4905380;28;20055;-74
2023/12/29 01:33:58;;;;;;;4.13;3.72;;;;;;;9.53;84.10;98089.59;4949111;28;20041;-74
2023/12/29 01:36:23;;;;;;;3.85;3.45;;;;;;;9.60;83.71;98083.03;4946097;28;20039;-73
2023/12/29 01:38:49;;;;;;;3.63;3.33;;;;;;;9.71;83.58;98100.97;4935752;28;20027;-74
2023/12/29 01:41:14;;;;;;;4.10;3.70;;;;;;;9.65;83.15;98087.69;4918630;29;20066;-74
2023/12/29 01:44:12;;;;;;;4.03;3.63;;;;;;;9.70;82.53;98099.38;4921763;28;20035;-73
2023/12/29 01:46:38;;;;;;;4.05;3.60;;;;;;;9.77;83.23;98093.00;4927125;28;20059;-73
2023/12/29 01:49:03;;;;;;;3.70;3.40;;;;;;;9.70;82.93;98094.00;4932653;28;20054;-72
2023/12/29 01:51:29;;;;;;;3.50;3.20;;;;;;;9.65;82.96;98085.81;4927412;29;20042;-74
2023/12/29 01:53:56;;;;;;;3.20;2.90;;;;;;;9.79;82.80;98086.34;4933607;28;20035;-74
2023/12/29 01:56:21;;;;;;;3.63;3.28;;;;;;;9.74;82.79;98089.75;4932862;29;20400;-72
2023/12/29 01:58:49;;;;;;;3.85;3.38;;;;;;;9.65;82.78;98085.81;4915005;28;20027;-73
2023/12/29 02:01:15;;;;;;;5.25;3.20;;;;;;;9.59;82.82;98059.09;4922180;29;20032;-74
2023/12/29 02:03:43;;;;;;;4.88;3.47;;;;;;;9.63;82.53;98061.06;4917254;28;20027;-73
2023/12/29 02:06:08;;;;;;;5.68;3.65;;;;;;;9.60;83.00;98076.84;4920983;29;20127;-73
2023/12/29 02:08:34;;;;;;;3.80;3.40;;;;;;;9.49;83.38;98075.84;4907526;28;20027;-73
2023/12/29 02:10:59;;;;;;;3.58;3.13;;;;;;;9.59;83.40;98081.41;4915280;28;20039;-73
2023/12/29 02:13:25;;;;;;;4.45;3.95;;;;;;;9.59;83.64;98076.00;4912308;28;20027;-73
2023/12/29 02:15:52;;;;;;;4.50;3.70;;;;;;;9.45;83.12;98080.03;4937461;28;20417;-73
2023/12/29 02:18:18;;;;;;;3.72;3.42;;;;;;;9.44;83.48;98073.06;4925081;29;20027;-74
2023/12/29 02:20:45;;;;;;;4.05;3.70;;;;;;;9.47;83.61;98075.28;4935908;28;20035;-72
2023/12/29 02:23:10;;;;;;;4.15;3.50;;;;;;;9.35;83.65;98061.06;4934470;29;20116;-73
2023/12/29 02:25:36;;;;;;;4.72;3.80;;;;;;;9.35;83.60;98063.75;4930713;28;20036;-74
2023/12/29 02:28:16;;;;;;;4.38;3.50;;;;;;;9.20;83.46;98050.00;4936203;28;20032;-73
2023/12/29 02:30:46;;;;;;;3.63;3.33;;;;;;;9.12;83.73;98038.84;4940202;28;20039;-73
2023/12/29 02:33:19;;;;;;;3.80;3.50;;;;;;;9.28;83.88;98079.19;4941778;29;20089;-73
2023/12/29 02:35:45;;;;;;;4.10;3.35;;;;;;;9.21;84.30;98048.97;4931876;29;20038;-73
2023/12/29 02:38:12;;;;;;;5.13;3.58;;;;;;;9.18;84.40;98067.41;4948759;29;20027;-74
2023/12/29 02:40:38;;;;;;;3.83;3.42;;;;;;;9.23;84.10;98062.97;4908929;29;20453;-73
2023/12/29 02:43:03;;;;;;;3.70;3.40;;;;;;;9.02;84.36;98039.44;4941554;28;20494;-73
2023/12/29 02:45:29;;;;;;;5.50;3.80;;;;;;;9.17;84.34;98066.59;4927316;29;20507;-73
2023/12/29 02:47:54;;;;;;;3.85;3.45;;;;;;;9.05;84.27;98055.09;4946399;28;20491;-73
2023/12/29 02:50:20;;;;;;;4.40;4.00;;;;;;;9.05;84.60;98061.25;4941347;29;20046;-73
2023/12/29 02:52:45;;;;;;;4.13;3.70;;;;;;;9.01;84.72;98049.38;4961315;28;20035;-74
2023/12/29 02:55:11;;;;;;;4.10;3.70;;;;;;;8.98;85.09;98049.03;4930810;29;20515;-74
2023/12/29 02:57:37;;;;;;;4.35;3.65;;;;;;;9.01;84.86;98057.41;4931282;28;20578;-74
2023/12/29 03:00:04;;;;;;;4.50;3.65;;;;;;;9.04;85.35;98067.69;4932312;29;20075;-74
2023/12/29 03:02:29;;;;;;;4.25;3.85;;;;;;;9.04;84.84;98053.44;4916892;29;20055;-73
2023/12/29 03:04:55;;;;;;;4.57;3.88;;;;;;;8.85;85.43;98025.13;4946355;28;20154;-74
2023/12/29 03:07:20;;;;;;;4.30;3.90;;;;;;;8.98;85.01;98047.13;4953397;28;20027;-75
2023/12/29 03:09:46;;;;;;;4.18;3.75;;;;;;;8.94;85.04;98034.44;4936154;28;20042;-74
2023/12/29 03:12:11;;;;;;;4.65;3.90;;;;;;;8.98;85.00;98038.28;4948356;28;20032;-74
2023/12/29 03:14:37;;;;;;;4.80;4.40;;;;;;;8.95;85.42;98031.53;4910105;29;20555;-73
2023/12/29 03:17:02;;;;;;;4.22;3.83;;;;;;;8.89;85.32;98027.09;4909119;29;20402;-74
2023/12/29 03:19:28;;;;;;;5.25;4.10;;;;;;;8.80;85.50;98004.34;4940786;29;20078;-73
2023/12/29 03:21:54;;;;;;;4.53;4.13;;;;;;;8.89;85.22;98015.56;4929074;28;20046;-72
2023/12/29 03:24:20;;;;;;;4.75;4.30;;;;;;;8.83;86.02;98017.31;4928361;29;20130;-73
2023/12/29 03:26:47;;;;;;;4.72;4.32;;;;;;;8.95;86.22;98030.69;4925480;28;20027;-73
2023/12/29 03:29:13;;;;;;;4.70;4.30;;;;;;;8.83;86.15;98013.81;4944103;28;20055;-74
2023/12/29 03:31:39;;;;;;;5.80;4.75;;;;;;;9.01;85.92;98043.16;4951841;28;20031;-73
2023/12/29 03:34:05;;;;;;;5.40;4.45;;;;;;;8.93;85.96;98030.13;4926427;29;20036;-76
2023/12/29 03:36:31;;;;;;;6.18;4.25;;;;;;;8.95;85.82;98025.34;4931554;29;20035;-76
2023/12/29 03:38:56;;;;;;;4.85;4.45;;;;;;;9.03;85.87;98027.66;4925812;29;20035;-76
2023/12/29 03:41:21;;;;;;;6.30;4.70;;;;;;;9.04;86.11;98040.00;4912340;29;20024;-73
2023/12/29 03:43:47;;;;;;;5.47;4.55;;;;;;;9.04;85.75;98026.59;4923839;28;20043;-73
2023/12/29 03:46:19;;;;;;;5.20;4.70;;;;;;;9.02;85.33;98023.31;4941153;28;20485;-72
2023/12/29 03:48:45;;;;;;;5.13;4.63;;;;;;;8.87;85.26;98007.72;4930645;29;20062;-74
2023/12/29 03:51:10;;;;;;;5.80;4.40;;;;;;;8.97;86.09;98023.22;4933313;29;20023;-72
2023/12/29 03:53:36;;;;;;;5.15;4.60;;;;;;;8.96;85.75;98024.28;4910866;28;20184;-72
2023/12/29 03:56:09;;;;;;;4.63;4.15;;;;;;;8.94;85.40;98018.31;4953994;28;20054;-73
2023/12/29 03:58:35;;;;;;;5.20;4.70;;;;;;;8.98;85.83;98024.88;4928515;29;20040;-73
2023/12/29 04:01:01;;;;;;;4.93;4.53;;;;;;;8.92;85.33;98020.44;4954797;28;20045;-73
2023/12/29 04:03:26;;;;;;;6.45;4.75;;;;;;;8.84;85.51;98035.06;4926417;29;20048;-73
2023/12/29 04:05:52;;;;;;;6.03;4.63;;;;;;;8.80;85.37;98027.69;4930453;29;20046;-73
2023/12/29 04:08:17;;;;;;;5.47;4.97;;;;;;;8.75;85.45;98020.34;4914829;28;20405;-72
2023/12/29 04:10:43;;;;;;;5.15;4.65;;;;;;;8.84;85.46;98035.06;4918974;29;20027;-72
2023/12/29 04:13:08;;;;;;;4.70;4.30;;;;;;;8.87;85.52;98033.75;4937292;28;20453;-70
2023/12/29 04:15:34;;;;;;;5.15;4.65;;;;;;;8.89;85.63;98021.72;4926138;29;20029;-69
2023/12/29 04:18:00;;;;;;;5.10;4.68;;;;;;;8.94;84.85;98029.06;4929122;28;20043;-72
2023/12/29 04:20:26;;;;;;;4.82;4.43;;;;;;;8.91;85.43;98035.72;4929019;29;20034;-71
2023/12/29 04:22:51;;;;;;;4.70;4.30;;;;;;;8.73;84.99;98002.84;4952535;28;20390;-74
2023/12/29 04:25:17;;;;;;;5.10;4.60;;;;;;;8.89;85.39;98034.34;4922702;29;20019;-75
2023/12/29 04:27:42;;;;;;;6.15;4.70;;;;;;;8.85;84.92;98035.84;4925608;28;20058;-73
2023/12/29 04:30:08;;;;;;;6.65;4.97;;;;;;;8.81;85.42;98018.59;4937257;29;20027;-72
2023/12/29 04:32:33;;;;;;;4.70;4.30;;;;;;;8.91;85.23;98034.94;4950583;28;20043;-74
2023/12/29 04:34:59;;;;;;;6.97;4.75;;;;;;;8.82;84.65;98001.44;4955109;28;20027;-75
2023/12/29 04:37:24;;;;;;;4.80;4.30;;;;;;;9.03;84.40;98038.41;4959025;28;20059;-74
2023/12/29 04:39:50;;;;;;;5.38;4.20;;;;;;;9.07;84.03;98041.41;4952290;28;20047;-73
2023/12/29 04:42:17;;;;;;;4.35;3.95;;;;;;;9.09;83.93;98041.97;4919133;28;20030;-73
2023/12/29 04:44:43;;;;;;;5.50;4.50;;;;;;;9.06;84.22;98040.59;4928718;28;20032;-75
2023/12/29 04:47:09;;;;;;;5.25;4.25;;;;;;;8.91;83.80;98024.19;4918219;29;20124;-72
2023/12/29 04:49:34;;;;;;;5.22;4.72;;;;;;;9.04;83.62;98040.84;4955401;28;20030;-72
2023/12/29 04:51:59;;;;;;;4.78;4.38;;;;;;;9.00;84.08;98044.25;4936717;28;20049;-71
2023/12/29 04:54:25;;;;;;;4.20;3.80;;;;;;;8.99;84.02;98038.03;4929075;29;20054;-71
2023/12/29 04:56:50;;;;;;;5.90;4.18;;;;;;;8.97;83.63;98039.34;4947843;28;20426;-72
2023/12/29 04:59:16;;;;;;;4.82;4.03;;;;;;;8.84;83.56;98035.06;4952088;28;20035;-74
2023/12/29 05:01:41;;;;;;;4.93;4.00;;;;;;;8.87;83.35;98036.44;4951230;28;20043;-72
2023/12/29 05:04:07;;;;;;;4.60;3.88;;;;;;;8.62;83.63;98003.69;4949471;28;20033;-70
2023/12/29 05:06:32;;;;;;;4.70;4.22;;;;;;;8.76;84.04;98037.28;4963990;28;20027;-71
2023/12/29 05:08:58;;;;;;;4.30;3.90;;;;;;;8.77;83.42;98038.94;4953399;28;20395;-72
2023/12/29 05:11:25;;;;;;;5.00;4.13;;;;;;;8.83;82.53;98036.09;4943575;28;20062;-71
2023/12/29 05:13:51;;;;;;;4.30;3.90;;;;;;;8.71;82.70;98019.19;4942954;29;20031;-72
2023/12/29 05:16:16;;;;;;;4.25;3.63;;;;;;;8.73;83.25;98021.63;4952350;28;20039;-72
2023/12/29 05:18:42;;;;;;;4.15;3.75;;;;;;;8.69;83.20;98024.00;4915732;29;20023;-72
2023/12/29 05:21:14;;;;;;;5.25;4.00;;;;;;;8.65;82.97;98019.34;4935518;28;20039;-72
2023/12/29 05:23:40;;;;;;;4.97;4.47;;;;;;;8.58;83.10;98002.53;4929069;28;20042;-71
2023/12/29 05:26:05;;;;;;;4.45;3.92;;;;;;;8.49;82.86;98003.97;4950709;28;20113;-72
2023/12/29 05:28:31;;;;;;;4.30;3.90;;;;;;;8.39;83.27;97993.81;4934673;29;20109;-72
2023/12/29 05:30:56;;;;;;;4.60;3.92;;;;;;;8.51;83.42;98013.41;4933794;28;20081;-72
2023/12/29 05:33:21;;;;;;;5.20;3.80;;;;;;;8.48;83.48;98023.78;4950506;28;20114;-73
2023/12/29 05:35:47;;;;;;;4.55;4.05;;;;;;;8.47;83.32;98027.53;4952826;28;20475;-72
2023/12/29 05:38:12;;;;;;;4.53;4.13;;;;;;;8.46;82.93;98015.16;4943673;28;20051;-72
2023/12/29 05:40:38;;;;;;;4.78;4.28;;;;;;;8.40;82.60;98014.25;4931787;28;20020;-71
2023/12/29 05:43:03;;;;;;;6.10;3.53;;;;;;;8.33;82.08;98002.81;4939993;28;20039;-73
2023/12/29 05:45:29;;;;;;;4.18;3.60;;;;;;;8.35;82.13;98019.50;4928707;29;20027;-76
2023/12/29 05:47:54;;;;;;;6.18;3.80;;;;;;;8.34;82.06;98024.03;4949646;28;20034;-73
2023/12/29 05:50:19;;;;;;;4.53;3.65;;;;;;;8.39;82.19;98035.94;4950763;28;20043;-72
2023/12/29 05:52:49;;;;;;;3.80;3.50;;;;;;;8.37;81.60;98021.94;4926099;28;20031;-72
2023/12/29 05:55:15;;;;;;;3.70;3.40;;;;;;;8.42;81.01;98035.47;4925100;29;20043;-72
2023/12/29 05:57:41;;;;;;;5.40;3.38;;;;;;;8.30;80.70;98017.50;4947706;28;20031;-72
2023/12/29 06:00:08;;;;;;;4.72;3.55;;;;;;;8.33;80.58;98032.34;4946551;28;20474;-74
2023/12/29 06:02:37;;;;;;;4.88;3.60;;;;;;;8.23;80.72;98015.97;4944746;28;20028;-73
2023/12/29 06:05:03;;;;;;;9.00;6.40;;;;;;;8.16;80.30;98016.09;4951444;28;20045;-70
2023/12/29 06:07:28;;;;;;;11.90;10.13;;;;;;;8.16;80.52;98016.09;4935751;29;20102;-74
2023/12/29 06:09:54;;;;;;;9.13;8.23;;;;;;;8.23;80.40;98030.19;4932473;28;21296;-74
2023/12/29 06:12:19;;;;;;;6.43;5.80;;;;;;;8.24;79.95;98039.88;4937020;29;20027;-73
2023/12/29 06:14:44;;;;;;;5.80;4.32;;;;;;;8.19;79.39;98026.31;4911285;28;20043;-74
2023/12/29 06:17:10;;;;;;;3.70;3.40;;;;;;;8.23;79.84;98043.63;4928997;28;20026;-73
2023/12/29 06:19:35;;;;;;;4.38;3.97;;;;;;;8.10;78.94;98011.63;4949818;28;20119;-73
2023/12/29 06:22:01;;;;;;;4.38;3.97;;;;;;;8.21;79.37;98029.59;4924658;28;20031;-75
2023/12/29 06:24:27;;;;;;;5.50;3.83;;;;;;;8.14;79.38;98023.56;4950950;28;20075;-75
2023/12/29 06:26:53;;;;;;;5.25;4.40;;;;;;;8.27;79.21;98034.06;4927881;28;20023;-74
2023/12/29 06:29:18;;;;;;;4.72;3.50;;;;;;;8.21;79.22;98021.53;4937112;28;20114;-74
2023/12/29 06:31:44;;;;;;;5.53;4.63;;;;;;;8.11;79.37;98021.31;4931775;29;20372;-73
2023/12/29 06:34:09;;;;;;;6.90;5.78;;;;;;;8.04;79.19;98009.91;4946249;28;20405;-72
2023/12/29 06:36:35;;;;;;;7.97;5.70;;;;;;;8.01;79.73;98014.91;4909898;29;20011;-74
2023/12/29 06:39:00;;;;;;;7.60;6.47;;;;;;;8.10;79.44;98025.03;4938261;28;20069;-71
2023/12/29 06:41:25;;;;;;;6.07;4.97;;;;;;;7.98;79.73;98012.69;4927196;29;20027;-74
2023/12/29 06:43:51;;;;;;;7.18;5.47;;;;;;;8.07;79.62;98014.81;4941325;28;20032;-74
2023/12/29 06:46:17;;;;;;;6.45;5.63;;;;;;;8.02;80.02;98012.00;4926025;29;20558;-74
2023/12/29 06:48:42;;;;;;;6.60;5.47;;;;;;;8.06;79.84;98018.53;4949588;28;20039;-72
2023/12/29 06:51:09;;;;;;;6.28;5.40;;;;;;;7.96;80.59;98004.88;4942426;29;20028;-72
2023/12/29 06:53:35;;;;;;;5.38;4.72;;;;;;;7.89;80.98;98008.72;4945500;28;20040;-73
2023/12/29 06:56:01;;;;;;;6.32;5.55;;;;;;;7.98;81.92;98013.50;4927672;28;20085;-73
2023/12/29 06:58:26;;;;;;;5.88;5.13;;;;;;;7.99;80.82;98015.13;4960360;28;20039;-73
2023/12/29 07:00:51;;;;;;;5.57;4.97;;;;;;;7.94;81.86;98004.28;4947172;28;20118;-74
2023/12/29 07:03:17;;;;;;;4.40;4.00;;;;;;;7.92;81.44;97998.34;4943694;28;20134;-74
2023/12/29 07:05:43;;;;;;;6.75;4.57;;;;;;;8.08;81.72;98023.66;4944026;28;20019;-72
2023/12/29 07:08:08;;;;;;;4.82;4.32;;;;;;;7.96;82.21;98009.44;4928776;28;20036;-71
2023/12/29 07:10:34;;;;;;;6.07;5.13;;;;;;;7.96;81.71;98014.81;4919341;29;20093;-72
2023/12/29 07:12:59;;;;;;;6.13;4.60;;;;;;;8.04;81.71;98017.94;4931894;29;20486;-69
2023/12/29 07:15:25;;;;;;;5.03;4.30;;;;;;;8.03;82.19;98021.66;4926245;28;20036;-72
2023/12/29 07:17:50;;;;;;;6.18;4.68;;;;;;;8.10;82.91;98032.28;4931889;28;20039;-72
2023/12/29 07:20:16;;;;;;;4.78;4.28;;;;;;;8.22;82.23;98052.69;4948926;28;20196;-73
2023/12/29 07:22:41;;;;;;;4.45;4.05;;;;;;;8.10;81.93;98032.28;4929249;29;20420;-73
2023/12/29 07:25:07;;;;;;;5.13;4.20;;;;;;;8.31;81.78;98062.06;4937226;29;20114;-71
2023/12/29 07:27:32;;;;;;;7.00;6.30;;;;;;;8.28;82.40;98046.41;4924708;29;20036;-72
2023/12/29 07:29:58;;;;;;;78.07;46.78;;;;;;;8.34;82.09;98040.13;4927702;29;20027;-73
2023/12/29 07:32:24;;;;;;;13.45;9.18;;;;;;;8.37;81.98;98038.03;4933874;28;20134;-74
2023/12/29 07:34:49;;;;;;;41.30;26.27;;;;;;;8.49;82.32;98063.00;4930820;28;20023;-72
2023/12/29 07:37:14;;;;;;;74.57;45.95;;;;;;;8.26;81.54;98005.59;4929344;29;20143;-71
2023/12/29 07:39:40;;;;;;;19.67;13.35;;;;;;;8.58;82.12;98057.03;4949563;29;20177;-73
2023/12/29 07:42:07;;;;;;;11.88;8.05;;;;;;;8.61;81.65;98055.75;4938723;28;20058;-72
2023/12/29 07:44:33;;;;;;;4.55;4.15;;;;;;;8.72;81.51;98063.81;4941572;28;20049;-72
2023/12/29 07:46:58;;;;;;;4.55;3.90;;;;;;;8.75;81.55;98067.88;4940092;28;20483;-72
2023/12/29 07:49:24;;;;;;;4.18;3.88;;;;;;;8.69;81.37;98053.53;4910597;29;20834;-72
2023/12/29 07:51:50;;;;;;;5.97;5.22;;;;;;;8.68;81.31;98043.03;4932333;28;20503;-74
2023/12/29 07:54:15;;;;;;;5.50;4.45;;;;;;;8.86;81.16;98069.72;4946178;28;20035;-74
2023/12/29 07:56:41;;;;;;;4.93;4.28;;;;;;;8.86;80.88;98059.81;4951923;28;20039;-73
2023/12/29 07:59:06;;;;;;;3.75;3.45;;;;;;;8.78;80.59;98051.28;4935078;28;20150;-73
2023/12/29 08:01:32;;;;;;;4.10;3.63;;;;;;;8.85;80.67;98057.34;4923939;29;20038;-73
2023/12/29 08:03:57;;;;;;;3.70;3.30;;;;;;;9.01;81.00;98070.03;4933915;28;20380;-72
2023/12/29 08:06:22;;;;;;;5.57;3.70;;;;;;;8.91;79.77;98043.78;4961082;28;20040;-73
2023/12/29 08:08:48;;;;;;;3.90;3.50;;;;;;;9.01;80.09;98064.66;4945981;29;20027;-72
2023/12/29 08:11:15;;;;;;;4.13;3.60;;;;;;;9.14;80.08;98072.47;4953765;28;20038;-72
2023/12/29 08:13:41;;;;;;;3.33;3.03;;;;;;;9.13;79.20;98078.88;4931597;29;20542;-73
2023/12/29 08:16:08;;;;;;;5.10;3.38;;;;;;;9.26;78.86;98075.13;4952213;28;20063;-73
2023/12/29 08:18:33;;;;;;;4.15;3.75;;;;;;;9.32;78.55;98074.16;4937825;29;20618;-73
2023/12/29 08:20:59;;;;;;;4.63;3.58;;;;;;;9.30;78.48;98066.34;4934264;29;20035;-72
2023/12/29 08:23:26;;;;;;;3.17;2.80;;;;;;;9.38;78.29;98071.31;4929650;28;20427;-72
2023/12/29 08:25:52;;;;;;;3.55;3.20;;;;;;;9.41;78.34;98073.53;4927538;29;20062;-73
2023/12/29 08:28:17;;;;;;;2.97;2.70;;;;;;;9.42;78.04;98085.09;4929259;28;20496;-73
2023/12/29 08:30:45;;;;;;;3.10;2.78;;;;;;;9.54;77.90;98081.31;4913717;29;20040;-73
2023/12/29 08:33:12;;;;;;;2.80;2.60;;;;;;;9.51;78.21;98075.59;4928576;29;20039;-73
2023/12/29 08:35:38;;;;;;;4.75;2.80;;;;;;;9.44;77.80;98062.31;4937226;29;20043;-73
2023/12/29 08:38:03;;;;;;;3.60;3.00;;;;;;;9.53;77.68;98070.78;4944926;28;20031;-73
2023/12/29 08:40:28;;;;;;;3.50;2.67;;;;;;;9.55;77.65;98082.94;4916666;29;20051;-73
2023/12/29 08:42:54;;;;;;;3.30;2.63;;;;;;;9.57;77.75;98067.38;4939880;28;20026;-73
2023/12/29 08:45:20;;;;;;;2.72;2.53;;;;;;;9.67;77.82;98091.78;4916070;29;20043;-73
2023/12/29 08:47:45;;;;;;;2.80;2.60;;;;;;;9.53;78.32;98065.41;4949047;28;20127;-73
2023/12/29 08:50:10;;;;;;;3.30;3.00;;;;;;;9.58;78.17;98071.72;4929888;28;21339;-73
2023/12/29 08:52:36;;;;;;;3.00;2.70;;;;;;;9.62;78.55;98086.28;4944494;28;20542;-73
2023/12/29 08:55:01;;;;;;;3.78;2.78;;;;;;;9.63;78.98;98082.56;4943567;28;20043;-73
2023/12/29 08:57:27;;;;;;;2.90;2.50;;;;;;;9.69;78.88;98076.22;4924161;28;20083;-73
2023/12/29 08:59:52;;;;;;;3.35;2.85;;;;;;;9.65;78.99;98074.25;4943311;28;20411;-74
2023/12/29 09:02:18;;;;;;;3.65;2.65;;;;;;;9.60;78.44;98072.28;4930545;28;20062;-73
2023/12/29 09:04:43;;;;;;;2.63;2.42;;;;;;;9.78;78.71;98083.91;4933736;29;20043;-72
2023/12/29 09:07:08;;;;;;;6.22;2.53;;;;;;;9.80;78.68;98095.22;4943596;28;20027;-73
2023/12/29 09:09:34;;;;;;;2.97;2.67;;;;;;;9.68;79.15;98084.53;4944639;28;20046;-72
2023/12/29 09:11:59;;;;;;;4.53;2.60;;;;;;;9.79;79.26;98101.66;4952536;28;20103;-73
2023/12/29 09:14:25;;;;;;;3.75;2.83;;;;;;;9.80;79.13;98100.59;4935079;29;20106;-73
2023/12/29 09:16:50;;;;;;;3.25;3.00;;;;;;;9.75;79.13;98096.75;4926444;29;20031;-72
2023/12/29 09:19:16;;;;;;;3.25;2.60;;;;;;;9.66;78.88;98079.38;4947796;28;20504;-73
2023/12/29 09:21:41;;;;;;;3.60;3.00;;;;;;;9.75;79.25;98096.75;4929459;28;20043;-73
2023/12/29 09:24:07;;;;;;;5.28;4.10;;;;;;;9.81;78.89;98096.84;4951679;28;20038;-72
2023/12/29 09:26:33;;;;;;;3.63;3.33;;;;;;;9.75;79.15;98101.34;4933245;28;20027;-73
2023/12/29 09:28:58;;;;;;;4.43;3.80;;;;;;;9.79;78.84;98105.16;4943811;28;20039;-73
2023/12/29 09:31:24;;;;;;;6.10;4.47;;;;;;;9.72;78.79;98083.81;4944237;28;20593;-73
2023/12/29 09:33:49;;;;;;;4.20;3.58;;;;;;;9.81;78.24;98094.97;4958142;28;20502;-73
2023/12/29 09:36:15;;;;;;;4.55;3.40;;;;;;;9.86;78.09;98107.69;4922327;28;20055;-73
2023/12/29 09:38:42;;;;;;;3.28;2.80;;;;;;;9.72;78.11;98072.22;4934256;29;20098;-73
2023/12/29 09:41:11;;;;;;;2.95;2.70;;;;;;;9.87;78.21;98104.75;4953310;28;20030;-71
2023/12/29 09:43:37;;;;;;;4.50;2.58;;;;;;;9.76;77.81;98067.97;4946080;28;20034;-73
2023/12/29 09:46:04;;;;;;;3.40;2.50;;;;;;;9.66;78.10;98076.69;4930419;29;20037;-73
2023/12/29 09:48:31;;;;;;;2.90;2.60;;;;;;;9.93;77.77;98103.81;4945997;28;20081;-72
2023/12/29 09:50:57;;;;;;;2.55;2.35;;;;;;;9.81;77.84;98089.59;4953560;28;20031;-74
2023/12/29 09:53:23;;;;;;;3.70;3.40;;;;;;;9.83;77.75;98078.59;4941792;28;20035;-73
2023/12/29 09:55:48;;;;;;;3.30;2.63;;;;;;;9.89;77.16;98072.25;4907183;28;20402;-73
2023/12/29 09:58:15;;;;;;;2.40;2.20;;;;;;;10.05;77.27;98091.09;4947158;28;20035;-73
2023/12/29 10:00:42;;;;;;;3.50;3.10;;;;;;;10.12;76.51;98097.19;4935008;28;20078;-72
2023/12/29 10:03:08;;;;;;;3.00;2.35;;;;;;;10.12;76.33;98090.97;4917851;29;20047;-73
2023/12/29 10:05:33;;;;;;;3.63;2.53;;;;;;;10.09;76.42;98076.09;4943161;29;20355;-73
2023/12/29 10:08:01;;;;;;;2.15;1.83;;;;;;;10.13;75.96;98071.06;4928336;28;20495;-73
2023/12/29 10:10:27;;;;;;;3.05;2.15;;;;;;;10.14;75.85;98061.94;4930770;29;20035;-74
2023/12/29 10:12:53;;;;;;;2.53;2.30;;;;;;;10.16;75.56;98065.19;4952297;28;20042;-71
2023/12/29 10:15:39;;;;;;;2.72;2.03;;;;;;;10.26;75.04;98086.91;4936056;29;20055;-73
2023/12/29 10:18:38;;;;;;;2.30;2.00;;;;;;;10.28;74.77;98079.41;4940098;28;20043;-72
2023/12/29 10:21:09;;;;;;;3.25;2.10;;;;;;;10.47;74.89;98077.25;4936888;28;20050;-73
2023/12/29 10:23:42;;;;;;;2.38;2.05;;;;;;;10.39;73.49;98065.03;4943402;29;20040;-73
2023/12/29 10:26:10;;;;;;;2.97;2.33;;;;;;;10.45;73.28;98064.06;4961321;28;20426;-73
2023/12/29 10:28:35;;;;;;;2.45;1.60;;;;;;;10.51;73.94;98079.22;4931832;29;20050;-73
2023/12/29 10:31:01;;;;;;;3.03;1.88;;;;;;;10.58;72.83;98061.00;4931339;29;20043;-73
2023/12/29 10:33:29;;;;;;;2.13;1.75;;;;;;;10.72;71.92;98073.06;4932113;29;20036;-73
2023/12/29 10:36:03;;;;;;;3.53;1.80;;;;;;;10.74;71.36;98062.84;4938378;28;20043;-73
2023/12/29 10:38:29;;;;;;;1.73;1.63;;;;;;;10.86;71.21;98066.25;4964779;28;20486;-74
2023/12/29 10:40:54;;;;;;;1.88;1.65;;;;;;;11.01;71.07;98057.56;4956476;28;20031;-74
2023/12/29 10:43:29;;;;;;;3.42;2.05;;;;;;;11.08;70.17;98048.19;4935546;29;20054;-74
2023/12/29 10:46:07;;;;;;;3.05;2.08;;;;;;;11.13;69.55;98049.34;4922561;28;20102;-73
2023/12/29 10:48:32;;;;;;;3.42;1.80;;;;;;;11.19;70.00;98048.31;4951989;29;20066;-74
2023/12/29 10:50:58;;;;;;;2.13;1.83;;;;;;;11.15;69.55;98036.44;4967591;28;20023;-74
2023/12/29 10:53:23;;;;;;;3.03;2.03;;;;;;;11.16;69.11;98035.34;4965616;28;20042;-74
2023/12/29 10:55:49;;;;;;;2.30;2.08;;;;;;;11.11;69.20;98042.31;4961160;28;20138;-74
2023/12/29 10:58:16;;;;;;;3.25;1.80;;;;;;;11.08;69.47;98063.56;4940772;28;20035;-74
2023/12/29 11:00:42;;;;;;;2.35;1.73;;;;;;;11.09;69.22;98049.84;4946856;28;20027;-74
2023/12/29 11:03:07;;;;;;;1.77;1.50;;;;;;;10.75;70.18;98013.31;4935636;28;20109;-74
2023/12/29 11:05:33;;;;;;;1.40;1.30;;;;;;;10.88;69.57;98031.78;4922193;28;20027;-73
2023/12/29 11:07:59;;;;;;;2.92;1.77;;;;;;;10.95;70.00;98036.97;4942742;28;20186;-74
2023/12/29 11:10:25;;;;;;;2.83;1.92;;;;;;;10.92;69.92;98022.13;4958295;28;20039;-75
2023/12/29 11:12:51;;;;;;;1.90;1.70;;;;;;;10.77;70.38;98021.94;4956263;28;20038;-75
2023/12/29 11:15:17;;;;;;;2.58;1.98;;;;;;;10.74;70.39;98019.75;4962314;28;20509;-74
2023/12/29 11:17:52;;;;;;;3.95;1.70;;;;;;;10.80;70.50;98039.50;4922943;29;20035;-74
2023/12/29 11:20:17;;;;;;;2.30;1.80;;;;;;;10.66;70.70;98020.19;4936834;29;20051;-74
2023/12/29 11:22:46;;;;;;;2.17;1.50;;;;;;;10.78;70.43;98042.41;4951319;28;20031;-74
2023/12/29 11:25:11;;;;;;;2.78;1.90;;;;;;;10.75;70.51;98037.56;4937018;29;20123;-74
2023/12/29 11:27:37;;;;;;;3.55;1.70;;;;;;;10.71;71.51;98025.63;4921324;29;20104;-74
2023/12/29 11:30:04;;;;;;;1.70;1.60;;;;;;;10.73;70.67;98026.22;4959014;28;20039;-74
2023/12/29 11:32:50;;;;;;;2.70;1.70;;;;;;;10.75;70.89;98032.16;4939615;29;20078;-74
2023/12/29 11:35:23;;;;;;;2.00;1.73;;;;;;;10.69;71.24;98014.28;4930872;29;20098;-74